Meraux, Louisiana
Current Conditions -  °F | °C
As of 8:55 PM on Saturday 22 Nov 2014 (Local Time) from KNBG Reporting Station
Overcast Overcast  
Wind Chill: 66°   Ceiling: 1800
Heat Index: 66°   Visibility: 10mi
Dew Point: 61°   Wind: 15mph
Humidity: 84%   Direction: 100°E
Pressure: 29.93"   Gusts: NA
Location:  29.92°N, 89.91°W
Report Text: KNBG 230255Z 10013KT 10SM SCT007 BKN018 OVC250 19/16 A2993 RMK AO2 SLP133 T01890161 56028 $
Loading
Personal Weather Stations






























Interactive Weather Map New forecast layout! Learn more

10-Day Weather Forecast

Advertisements
Track Severe Weather on mobile